Time;durP1;ratioP1;P1;durP2;ratioP2;P2;SDS_P1;SDS_P2;PMS_P1;PMS_P2;Temp;Humidity;BMP_temperature;BMP_pressure;BME280_temperature;BME280_humidity;BME280_pressure;Samples;Min_cycle;Max_cycle;Signal;HPM_P1;HPM_P2
2022/06/27 00:01:32;;;;;;;9.48;8.68;;;;;;;22.45;62.40;100310.94;5039869;28;20041;-70
2022/06/27 00:03:57;;;;;;;8.82;7.97;;;;;;;22.43;62.68;100307.50;5040689;28;20121;-70
2022/06/27 00:06:23;;;;;;;9.32;8.07;;;;;;;22.38;62.85;100301.53;5040950;28;20131;-70
2022/06/27 00:08:48;;;;;;;10.30;9.20;;;;;;;22.30;63.26;100301.97;5039243;28;20064;-70
2022/06/27 00:11:15;;;;;;;9.57;8.70;;;;;;;22.24;63.58;100302.31;5041803;28;20106;-70
2022/06/27 00:13:40;;;;;;;10.75;9.75;;;;;;;22.19;63.52;100297.22;5040178;28;20037;-70
2022/06/27 00:16:06;;;;;;;9.48;8.68;;;;;;;22.16;63.49;100293.81;5041134;28;20045;-70
2022/06/27 00:18:31;;;;;;;10.23;9.32;;;;;;;22.11;63.60;100291.38;5041177;28;20439;-70
2022/06/27 00:20:56;;;;;;;9.98;9.07;;;;;;;22.12;64.20;100292.25;5039497;28;20049;-70
2022/06/27 00:23:22;;;;;;;10.13;9.13;;;;;;;22.09;63.65;100287.94;5042448;28;20072;-70
2022/06/27 00:25:47;;;;;;;10.27;9.38;;;;;;;22.07;63.42;100297.91;5039144;28;20042;-70
2022/06/27 00:28:13;;;;;;;10.52;9.63;;;;;;;22.03;63.71;100293.63;5041708;28;20036;-70
2022/06/27 00:30:39;;;;;;;10.43;9.52;;;;;;;22.01;63.85;100300.94;5039125;28;20057;-70
2022/06/27 00:33:05;;;;;;;10.80;9.77;;;;;;;21.97;64.30;100300.25;5040022;28;20056;-70
2022/06/27 00:35:30;;;;;;;9.93;8.95;;;;;;;21.91;64.54;100302.44;5040394;28;20110;-69
2022/06/27 00:37:55;;;;;;;9.70;8.90;;;;;;;21.87;64.27;100307.94;5039330;28;20045;-70
2022/06/27 00:40:21;;;;;;;11.13;10.02;;;;;;;21.73;65.54;100307.88;5041185;28;20045;-70
2022/06/27 00:42:46;;;;;;;653.25;127.65;;;;;;;21.67;65.26;100305.53;5038327;28;20036;-70
2022/06/27 00:45:12;;;;;;;1999.90;999.90;;;;;;;21.66;65.10;100304.66;5039305;28;20051;-70
2022/06/27 00:47:37;;;;;;;1999.90;999.90;;;;;;;21.58;65.56;100306.91;5040364;28;20044;-70
2022/06/27 00:50:04;;;;;;;457.05;420.45;;;;;;;21.55;65.92;100312.44;5040264;28;20025;-70
2022/06/27 00:52:30;;;;;;;566.45;393.65;;;;;;;21.52;65.90;100311.75;5041192;28;20087;-70
2022/06/27 00:54:57;;;;;;;603.63;548.53;;;;;;;21.51;65.68;100315.38;5038943;28;20029;-70
2022/06/27 00:57:23;;;;;;;1999.90;999.90;;;;;;;21.48;65.48;100315.53;5034975;28;20086;-70
2022/06/27 00:59:49;;;;;;;710.72;667.65;;;;;;;21.43;66.00;100322.06;5038703;28;20033;-70
2022/06/27 01:02:14;;;;;;;889.45;617.63;;;;;;;21.42;66.14;100322.97;5038453;28;20035;-70
2022/06/27 01:04:40;;;;;;;1999.90;999.90;;;;;;;21.40;66.43;100319.50;5040020;28;20560;-70
2022/06/27 01:07:07;;;;;;;1999.90;999.90;;;;;;;21.40;66.34;100324.00;5038984;28;20060;-70
2022/06/27 01:09:33;;;;;;;1999.90;999.90;;;;;;;21.36;66.31;100317.94;5035110;28;20123;-70
2022/06/27 01:11:59;;;;;;;1999.90;999.90;;;;;;;21.34;66.66;100317.13;5040599;28;20080;-70
2022/06/27 01:14:24;;;;;;;1999.90;999.90;;;;;;;21.32;66.31;100324.41;5041523;28;20467;-70
2022/06/27 01:16:50;;;;;;;1999.90;999.90;;;;;;;21.24;66.10;100332.00;5043890;28;20033;-70
2022/06/27 01:19:17;;;;;;;1999.90;999.90;;;;;;;21.18;66.26;100333.19;5043517;28;20029;-70
2022/06/27 01:21:52;;;;;;;863.63;802.65;;;;;;;21.10;67.47;100331.88;5040385;28;20506;-70
2022/06/27 01:24:19;;;;;;;872.83;813.70;;;;;;;20.97;67.98;100334.34;5041551;28;20026;-70
2022/06/27 01:26:45;;;;;;;688.53;645.78;;;;;;;20.95;67.35;100334.41;5040234;28;20128;-69
2022/06/27 01:29:14;;;;;;;666.00;625.53;;;;;;;20.98;67.44;100331.56;5045221;28;20550;-70
2022/06/27 01:31:40;;;;;;;676.05;634.35;;;;;;;21.00;67.72;100339.53;5037729;28;20655;-70
2022/06/27 01:34:06;;;;;;;748.17;701.38;;;;;;;20.97;67.97;100340.56;5043472;28;20128;-70
2022/06/27 01:36:41;;;;;;;680.20;638.63;;;;;;;20.92;68.41;100336.41;5042086;28;20091;-70
2022/06/27 01:39:14;;;;;;;1999.90;999.90;;;;;;;20.97;67.97;100339.72;5040716;28;20037;-70
2022/06/27 01:41:44;;;;;;;1999.90;999.90;;;;;;;20.99;67.92;100333.31;5041876;28;20036;-70
2022/06/27 01:44:10;;;;;;;1999.90;999.90;;;;;;;21.00;67.84;100335.03;5043016;28;20040;-70
2022/06/27 01:46:52;;;;;;;1999.90;999.90;;;;;;;20.96;68.65;100341.53;5040202;28;20112;-70
2022/06/27 01:49:18;;;;;;;1999.90;999.90;;;;;;;20.94;68.56;100339.88;5041297;28;20033;-71
2022/06/27 01:51:45;;;;;;;1999.90;999.90;;;;;;;20.93;67.86;100344.38;5042141;28;20481;-70
2022/06/27 01:54:13;;;;;;;656.05;610.95;;;;;;;20.93;68.21;100339.00;5037720;28;20029;-70
2022/06/27 01:56:40;;;;;;;863.65;805.35;;;;;;;20.91;68.60;100334.66;5039443;28;20034;-70
2022/06/27 01:59:06;;;;;;;798.38;743.05;;;;;;;20.89;68.46;100334.75;5041949;28;20040;-70
2022/06/27 02:01:34;;;;;;;900.00;836.17;;;;;;;20.90;68.73;100338.28;5040792;28;20036;-70
2022/06/27 02:04:00;;;;;;;845.40;787.33;;;;;;;20.88;68.28;100338.38;5044483;28;20029;-70
2022/06/27 02:06:26;;;;;;;842.58;784.00;;;;;;;20.86;68.22;100334.91;5041317;28;20377;-70
2022/06/27 02:08:52;;;;;;;912.53;850.17;;;;;;;20.85;68.63;100330.47;5044232;28;20035;-70
2022/06/27 02:11:19;;;;;;;909.22;847.70;;;;;;;20.80;68.63;100329.84;5040337;28;20030;-70
2022/06/27 02:13:45;;;;;;;748.92;701.80;;;;;;;20.79;68.68;100330.78;5042719;28;20080;-70
2022/06/27 02:16:20;;;;;;;1999.90;999.90;;;;;;;20.76;69.32;100326.47;5042697;28;20078;-70
2022/06/27 02:18:46;;;;;;;812.97;761.05;;;;;;;20.75;68.83;100323.84;5038280;28;20034;-70
2022/06/27 02:21:22;;;;;;;828.17;769.90;;;;;;;20.76;69.57;100321.09;5042115;28;20741;-70
2022/06/27 02:23:48;;;;;;;821.58;760.03;;;;;;;20.72;69.03;100313.28;5043149;28;20029;-70
2022/06/27 02:26:15;;;;;;;764.88;717.25;;;;;;;20.68;68.81;100311.72;5033649;28;20491;-70
2022/06/27 02:28:42;;;;;;;1999.90;999.90;;;;;;;20.69;68.80;100324.16;5042155;28;20480;-70
2022/06/27 02:31:08;;;;;;;1999.90;999.90;;;;;;;20.68;69.31;100331.34;5042100;28;20400;-70
2022/06/27 02:33:36;;;;;;;1999.90;999.90;;;;;;;20.63;69.36;100330.72;5041672;28;20123;-70
2022/06/27 02:36:06;;;;;;;1999.90;999.90;;;;;;;20.63;69.31;100333.41;5042803;28;20059;-70
2022/06/27 02:38:32;;;;;;;1999.90;999.90;;;;;;;20.61;69.12;100343.31;5038217;28;20159;-70
2022/06/27 02:40:59;;;;;;;209.98;195.80;;;;;;;20.55;69.28;100349.88;5041020;28;20131;-70
2022/06/27 02:43:29;;;;;;;1999.90;999.90;;;;;;;20.47;70.04;100357.41;5042694;28;20459;-70
2022/06/27 02:45:55;;;;;;;912.85;846.58;;;;;;;20.39;70.57;100364.97;5039318;28;20036;-70
2022/06/27 02:48:25;;;;;;;1999.90;999.90;;;;;;;20.39;70.51;100358.75;5020926;28;20471;-70
2022/06/27 02:51:03;;;;;;;1999.90;999.90;;;;;;;20.36;70.97;100355.25;5040892;28;20041;-70
2022/06/27 02:53:33;;;;;;;217.05;203.07;;;;;;;20.37;71.02;100361.47;5043872;28;20064;-70
2022/06/27 02:56:21;;;;;;;1545.22;791.67;;;;;;;20.39;71.15;100364.97;5042155;28;20033;-70
2022/06/27 02:59:09;;;;;;;582.47;541.58;;;;;;;20.36;72.04;100365.97;5021505;28;20554;-70
2022/06/27 03:01:41;;;;;;;811.25;760.97;;;;;;;20.34;70.90;100367.00;5019884;28;20026;-70
2022/06/27 03:04:06;;;;;;;531.20;500.67;;;;;;;20.32;71.20;100375.09;5042510;28;20506;-71
2022/06/27 03:06:32;;;;;;;226.93;215.93;;;;;;;20.27;71.87;100376.28;5039604;28;20041;-70
2022/06/27 03:08:58;;;;;;;283.73;264.33;;;;;;;20.32;71.90;100366.19;5042075;28;20029;-70
2022/06/27 03:11:25;;;;;;;46.33;43.70;;;;;;;20.35;71.46;100366.03;5038695;28;20515;-70
2022/06/27 03:13:52;;;;;;;29.15;27.13;;;;;;;20.40;70.88;100361.31;5040987;28;20048;-70
2022/06/27 03:16:21;;;;;;;19.60;18.10;;;;;;;20.41;70.98;100363.09;5033407;28;20539;-70
2022/06/27 03:18:48;;;;;;;19.45;17.98;;;;;;;20.46;71.45;100349.41;5042829;28;20032;-70
2022/06/27 03:21:33;;;;;;;19.55;18.05;;;;;;;20.47;71.15;100354.72;5040502;28;20106;-70
2022/06/27 03:24:01;;;;;;;20.80;18.88;;;;;;;20.58;71.02;100365.78;5036852;28;20033;-70
2022/06/27 03:26:28;;;;;;;14.88;13.52;;;;;;;20.63;70.68;100359.34;5016269;28;20620;-70
2022/06/27 03:28:53;;;;;;;15.25;13.13;;;;;;;20.62;70.59;100350.44;5038578;28;20052;-70
2022/06/27 03:31:20;;;;;;;15.52;14.13;;;;;;;20.67;70.84;100339.47;5038164;28;20029;-70
2022/06/27 03:33:47;;;;;;;26.25;24.02;;;;;;;20.81;70.22;100334.28;5037586;28;20033;-70
2022/06/27 03:36:30;;;;;;;23.08;21.15;;;;;;;20.99;69.96;100340.50;5034957;28;20044;-70
2022/06/27 03:38:56;;;;;;;21.90;19.80;;;;;;;21.14;69.32;100349.53;5037223;28;20029;-70
2022/06/27 03:41:22;;;;;;;21.92;20.00;;;;;;;21.26;69.33;100356.09;5030775;28;20061;-70
2022/06/27 03:43:48;;;;;;;23.02;21.00;;;;;;;21.36;68.26;100351.97;5030344;28;20466;-69
2022/06/27 03:46:14;;;;;;;20.52;18.73;;;;;;;21.47;68.21;100357.63;5038751;28;20036;-70
2022/06/27 03:51:56;;;;;;;21.77;19.67;;;;;;;21.65;66.80;100356.63;5030799;28;20408;-71
2022/06/27 03:54:21;;;;;;;23.70;21.60;;;;;;;21.78;66.61;100364.88;5024173;28;20030;-71
2022/06/27 03:56:47;;;;;;;347.70;329.38;;;;;;;21.91;66.50;100366.91;5023829;28;20052;-71
2022/06/27 03:59:13;;;;;;;136.82;129.55;;;;;;;22.01;66.32;100363.63;5024254;28;20591;-71
2022/06/27 04:01:39;;;;;;;24.17;22.27;;;;;;;22.09;65.78;100360.50;5027376;28;20038;-71
2022/06/27 04:04:05;;;;;;;15.55;14.30;;;;;;;22.09;65.95;100368.56;5038822;28;20039;-71
2022/06/27 04:06:32;;;;;;;16.38;14.98;;;;;;;22.15;65.58;100357.44;5038995;28;20045;-70
2022/06/27 04:08:58;;;;;;;13.30;12.10;;;;;;;22.19;65.79;100358.16;5039668;28;20080;-70
2022/06/27 04:11:23;;;;;;;11.45;10.25;;;;;;;22.24;65.73;100356.97;5038028;28;20594;-70
2022/06/27 04:13:53;;;;;;;12.30;11.20;;;;;;;22.33;65.67;100350.19;5037592;28;20034;-70
2022/06/27 04:16:36;;;;;;;13.60;12.20;;;;;;;22.46;65.32;100359.28;5039908;28;20056;-70
2022/06/27 04:19:31;;;;;;;14.07;12.65;;;;;;;22.59;64.74;100359.41;5021228;28;20044;-70
2022/06/27 04:22:05;;;;;;;13.40;12.07;;;;;;;22.67;64.60;100349.06;5041024;28;20040;-70
2022/06/27 04:24:49;;;;;;;11.52;10.43;;;;;;;22.72;65.12;100357.72;5036640;28;20132;-70
2022/06/27 04:27:20;;;;;;;11.05;9.95;;;;;;;22.74;64.78;100350.44;5038177;28;20036;-70
2022/06/27 04:29:49;;;;;;;11.93;10.70;;;;;;;22.85;64.61;100347.13;5038503;28;20048;-71
2022/06/27 04:32:19;;;;;;;10.48;9.40;;;;;;;22.96;64.12;100341.06;5031467;28;20021;-71
2022/06/27 04:34:44;;;;;;;11.27;10.18;;;;;;;23.00;64.42;100345.31;5036923;28;20449;-71
2022/06/27 04:37:11;;;;;;;9.82;8.93;;;;;;;23.10;64.24;100343.81;5039257;28;20068;-71
2022/06/27 04:39:56;;;;;;;10.93;9.82;;;;;;;23.21;63.51;100331.53;5027890;28;20072;-70
2022/06/27 04:42:27;;;;;;;14.27;12.73;;;;;;;23.34;63.17;100327.09;5034717;28;20029;-71
2022/06/27 04:44:53;;;;;;;16.23;14.63;;;;;;;23.47;63.19;100324.50;5038435;28;20721;-71
2022/06/27 04:47:19;;;;;;;615.38;578.55;;;;;;;23.59;62.23;100332.69;5028173;28;20035;-71
2022/06/27 04:50:00;;;;;;;523.65;461.17;;;;;;;23.75;61.65;100323.66;5036530;28;20029;-71
2022/06/27 04:52:26;;;;;;;202.10;191.85;;;;;;;23.87;61.47;100322.88;5040087;28;20448;-70
2022/06/27 04:54:53;;;;;;;26.45;24.70;;;;;;;23.95;60.72;100323.22;5027637;28;20029;-70
2022/06/27 04:57:19;;;;;;;20.30;18.40;;;;;;;23.97;60.94;100321.31;5033007;28;20037;-70
2022/06/27 04:59:45;;;;;;;21.30;19.38;;;;;;;24.06;60.86;100320.69;5040202;28;20032;-71
2022/06/27 05:02:37;;;;;;;15.82;14.27;;;;;;;24.18;60.18;100318.13;5034932;28;20397;-71
2022/06/27 05:05:03;;;;;;;19.45;17.85;;;;;;;24.23;60.27;100326.78;5033481;28;20045;-70
2022/06/27 05:07:31;;;;;;;19.52;17.73;;;;;;;24.33;59.83;100327.91;5479390;23;20129;-71
2022/06/27 05:09:57;;;;;;;19.40;17.52;;;;;;;24.40;59.89;100329.25;5008907;28;20121;-71
2022/06/27 05:12:24;;;;;;;18.30;16.50;;;;;;;24.48;59.57;100332.31;5025038;28;20044;-71
2022/06/27 05:14:51;;;;;;;17.17;15.57;;;;;;;24.54;59.71;100331.03;5010885;28;20455;-71
2022/06/27 05:17:17;;;;;;;18.02;15.65;;;;;;;24.60;59.39;100335.16;5007896;28;20040;-71
2022/06/27 05:19:42;;;;;;;13.48;12.15;;;;;;;24.61;59.46;100320.72;5001715;28;20030;-71
2022/06/27 05:22:08;;;;;;;13.73;12.25;;;;;;;24.61;59.52;100331.50;5002704;28;20112;-71
2022/06/27 05:24:34;;;;;;;13.27;12.07;;;;;;;24.64;59.39;100331.28;5006587;28;20390;-71
2022/06/27 05:26:59;;;;;;;18.85;17.08;;;;;;;24.76;59.01;100330.47;5006999;28;20046;-71
2022/06/27 05:29:25;;;;;;;15.13;13.73;;;;;;;24.88;59.29;100328.72;5010023;28;20117;-71
2022/06/27 05:31:50;;;;;;;955.10;894.72;;;;;;;24.99;58.95;100331.53;5002782;28;20030;-71
2022/06/27 05:34:17;;;;;;;768.90;724.53;;;;;;;25.07;58.79;100328.31;5000657;28;20026;-71
2022/06/27 05:36:43;;;;;;;761.53;717.97;;;;;;;25.12;58.17;100326.16;5017557;28;20048;-71
2022/06/27 05:39:09;;;;;;;808.67;761.17;;;;;;;25.21;58.71;100324.69;4987389;28;20026;-71
2022/06/27 05:41:34;;;;;;;602.33;570.75;;;;;;;25.25;58.11;100323.50;5003125;28;20085;-71
2022/06/27 05:44:04;;;;;;;543.97;517.05;;;;;;;25.35;57.92;100324.56;5007318;28;20030;-71
2022/06/27 05:46:30;;;;;;;227.45;217.30;;;;;;;25.45;57.58;100327.50;5001434;28;20084;-71
2022/06/27 05:49:22;;;;;;;90.47;86.15;;;;;;;25.50;57.29;100328.03;4989974;28;20568;-71
2022/06/27 05:51:50;;;;;;;76.65;72.70;;;;;;;25.64;56.93;100333.28;5003179;28;20093;-71
2022/06/27 05:54:16;;;;;;;63.88;60.15;;;;;;;25.79;56.69;100334.03;5004252;28;20022;-71
2022/06/27 05:56:41;;;;;;;51.22;48.20;;;;;;;25.91;55.93;100340.38;4999345;28;20049;-71
2022/06/27 05:59:07;;;;;;;28.73;26.67;;;;;;;26.03;55.72;100342.19;5003818;28;20042;-71
2022/06/27 06:01:37;;;;;;;31.58;29.33;;;;;;;26.15;55.13;100340.44;4999860;28;20058;-71
2022/06/27 06:04:05;;;;;;;35.28;33.22;;;;;;;26.26;54.94;100342.34;5003533;28;20109;-71
2022/06/27 06:06:33;;;;;;;64.13;60.85;;;;;;;26.30;54.68;100338.41;5015763;28;20481;-71
2022/06/27 06:09:01;;;;;;;60.95;57.90;;;;;;;26.39;54.34;100341.31;5010534;28;20115;-71
2022/06/27 06:11:27;;;;;;;60.28;57.15;;;;;;;26.44;54.49;100343.66;5003690;28;20038;-71
2022/06/27 06:13:54;;;;;;;63.35;59.90;;;;;;;26.49;54.43;100338.78;5005815;28;20046;-71
2022/06/27 06:16:20;;;;;;;32.40;30.15;;;;;;;26.53;54.21;100334.88;5001634;28;20061;-71
2022/06/27 06:18:53;;;;;;;1999.90;999.90;;;;;;;26.55;53.88;100335.63;5008881;28;20069;-72
2022/06/27 06:21:20;;;;;;;1999.90;999.90;;;;;;;26.55;53.63;100330.22;5000146;28;20126;-71
2022/06/27 06:23:46;;;;;;;1999.90;999.90;;;;;;;26.56;53.39;100340.03;5001821;28;20026;-71
2022/06/27 06:26:14;;;;;;;1999.90;999.90;;;;;;;26.61;53.15;100335.16;5002714;28;20488;-71
2022/06/27 06:28:40;;;;;;;533.83;401.08;;;;;;;26.70;52.97;100336.31;4998864;28;20061;-71
2022/06/27 06:31:07;;;;;;;1218.88;999.90;;;;;;;26.76;52.50;100330.41;5010934;28;20052;-71
2022/06/27 06:33:33;;;;;;;1150.65;999.90;;;;;;;26.86;52.23;100325.16;5001132;28;20124;-71
2022/06/27 06:35:59;;;;;;;1029.68;960.58;;;;;;;26.95;51.81;100324.41;4999951;28;20133;-72
2022/06/27 06:38:25;;;;;;;1999.90;999.90;;;;;;;27.06;51.44;100327.19;5002494;28;20038;-71
2022/06/27 06:40:50;;;;;;;1283.38;999.90;;;;;;;27.19;51.11;100318.09;5015349;23;20045;-75
2022/06/27 06:43:16;;;;;;;1207.85;999.90;;;;;;;27.29;50.71;100324.50;4996618;28;20023;-75
2022/06/27 06:45:47;;;;;;;1148.32;999.90;;;;;;;27.35;50.27;100328.56;4998972;28;20046;-75
2022/06/27 06:48:32;;;;;;;1999.90;999.90;;;;;;;27.35;49.75;100332.13;4991008;28;20112;-75
2022/06/27 06:50:58;;;;;;;1868.07;999.90;;;;;;;27.42;49.19;100330.69;5002315;28;20035;-75
2022/06/27 06:53:24;;;;;;;1999.90;999.90;;;;;;;27.59;49.66;100331.16;4997507;28;20105;-75
2022/06/27 06:55:50;;;;;;;1999.90;999.90;;;;;;;27.77;48.93;100340.50;5001777;28;20038;-75
2022/06/27 06:58:16;;;;;;;1999.90;999.90;;;;;;;27.91;48.36;100337.59;4999291;28;20092;-75
2022/06/27 07:00:43;;;;;;;1999.90;999.90;;;;;;;28.02;48.16;100334.00;5001983;28;20087;-75
2022/06/27 07:03:09;;;;;;;1999.90;999.90;;;;;;;28.15;47.61;100325.69;5003200;28;20603;-75
2022/06/27 07:05:35;;;;;;;1999.90;999.90;;;;;;;28.27;47.34;100332.84;5000796;28;20068;-75
2022/06/27 07:08:01;;;;;;;1999.90;999.90;;;;;;;28.45;46.88;100318.72;5003734;28;20124;-75
2022/06/27 07:10:28;;;;;;;1999.90;999.90;;;;;;;28.62;47.02;100315.44;5001778;28;20101;-75
2022/06/27 07:12:54;;;;;;;1999.90;999.90;;;;;;;28.75;46.38;100310.69;5001062;28;20026;-75
2022/06/27 07:15:19;;;;;;;1999.90;999.90;;;;;;;28.90;46.05;100308.50;5001832;28;20560;-75
2022/06/27 07:17:47;;;;;;;1999.90;999.90;;;;;;;29.06;45.54;100310.78;5000641;28;20096;-75
2022/06/27 07:20:15;;;;;;;1999.90;999.90;;;;;;;29.22;45.34;100313.88;4997236;28;20034;-75
2022/06/27 07:22:42;;;;;;;1054.68;618.83;;;;;;;29.33;44.53;100301.19;5000934;28;20193;-75
2022/06/27 07:25:09;;;;;;;1217.53;999.90;;;;;;;29.42;44.24;100306.69;5002362;28;20449;-75
2022/06/27 07:27:35;;;;;;;1261.75;999.90;;;;;;;29.48;44.08;100306.13;4999241;28;20029;-75
2022/06/27 07:30:03;;;;;;;1029.50;937.97;;;;;;;29.54;43.54;100291.13;4998698;28;20041;-75
2022/06/27 07:32:29;;;;;;;1555.70;999.90;;;;;;;29.60;43.72;100293.28;5002417;28;20044;-75
2022/06/27 07:34:57;;;;;;;1660.15;999.90;;;;;;;29.69;43.05;100289.78;5001519;28;20049;-75
2022/06/27 07:37:23;;;;;;;902.75;848.65;;;;;;;29.77;42.79;100283.66;5001572;28;20062;-75
2022/06/27 07:39:49;;;;;;;845.53;798.00;;;;;;;29.85;41.85;100280.22;5002964;28;20127;-75
2022/06/27 07:42:14;;;;;;;31.05;29.08;;;;;;;29.91;42.10;100276.94;4998733;28;20053;-75
2022/06/27 07:44:41;;;;;;;32.47;30.55;;;;;;;29.92;41.81;100267.75;5003431;28;20077;-75
2022/06/27 07:47:07;;;;;;;43.33;41.03;;;;;;;30.04;41.69;100266.66;4986160;28;20408;-75
2022/06/27 07:49:32;;;;;;;31.88;30.08;;;;;;;30.21;41.30;100262.38;4992836;28;20034;-75
2022/06/27 07:51:58;;;;;;;9.80;8.82;;;;;;;30.35;41.65;100258.41;4994527;28;20096;-75
2022/06/27 07:54:24;;;;;;;6.97;6.38;;;;;;;30.41;39.80;100271.41;5002134;28;20512;-75
2022/06/27 07:56:51;;;;;;;5.90;5.30;;;;;;;30.39;39.49;100273.41;4999493;28;20539;-75
2022/06/27 07:59:17;;;;;;;500.63;465.85;;;;;;;30.54;40.61;100262.97;4995861;28;20034;-75
2022/06/27 08:01:43;;;;;;;18.88;17.55;;;;;;;30.68;39.71;100270.69;4993625;28;20045;-75
2022/06/27 08:04:11;;;;;;;12.50;11.57;;;;;;;30.84;39.24;100266.50;4994120;28;21016;-75
2022/06/27 08:06:38;;;;;;;370.70;323.80;;;;;;;30.98;39.63;100257.91;4993462;28;20069;-75
2022/06/27 08:09:05;;;;;;;7.55;6.68;;;;;;;31.09;38.98;100257.72;5004792;28;20045;-75
2022/06/27 08:11:36;;;;;;;7.22;6.38;;;;;;;31.14;37.52;100262.72;4991933;28;20125;-75
2022/06/27 08:14:08;;;;;;;6.28;4.22;;;;;;;31.09;38.02;100257.72;5001058;28;20084;-75
2022/06/27 08:16:35;;;;;;;1999.90;999.90;;;;;;;31.19;37.52;100252.22;4996235;28;20030;-75
2022/06/27 08:19:01;;;;;;;1088.30;993.25;;;;;;;31.27;36.77;100249.59;4996467;28;20042;-75
2022/06/27 08:21:28;;;;;;;1208.47;999.90;;;;;;;31.28;36.93;100254.03;4998972;28;20038;-75
2022/06/27 08:24:00;;;;;;;1190.57;999.90;;;;;;;31.43;36.44;100252.56;5004109;28;20025;-75
2022/06/27 08:26:26;;;;;;;1028.65;891.67;;;;;;;31.50;36.12;100243.81;5005755;28;20042;-75
2022/06/27 08:28:52;;;;;;;120.25;114.53;;;;;;;31.58;35.26;100260.28;5003363;28;20084;-75
2022/06/27 08:31:19;;;;;;;71.60;68.30;;;;;;;31.66;34.38;100261.22;5005818;28;20037;-75
2022/06/27 08:33:46;;;;;;;1999.90;999.90;;;;;;;31.65;34.46;100253.19;5005137;28;20077;-75
2022/06/27 08:36:14;;;;;;;1081.38;992.70;;;;;;;31.77;35.04;100256.56;5004958;28;20459;-75
2022/06/27 08:38:42;;;;;;;667.00;631.33;;;;;;;31.82;33.85;100255.09;5006650;28;20038;-75
2022/06/27 08:41:09;;;;;;;143.32;137.00;;;;;;;31.80;33.54;100257.09;4999467;28;20034;-75
2022/06/27 08:43:35;;;;;;;219.10;63.83;;;;;;;31.83;33.57;100256.81;5005719;28;20040;-75
2022/06/27 08:46:00;;;;;;;6.32;4.97;;;;;;;31.90;33.90;100264.38;5005359;28;20030;-75
2022/06/27 08:48:28;;;;;;;5.13;3.92;;;;;;;32.01;33.12;100256.00;5004381;28;20045;-75
2022/06/27 08:50:55;;;;;;;9.18;8.48;;;;;;;32.09;32.67;100246.03;5006039;28;20034;-75
2022/06/27 08:53:22;;;;;;;4.68;4.10;;;;;;;32.18;33.13;100248.84;4999861;28;20070;-75
2022/06/27 08:55:47;;;;;;;12.15;11.15;;;;;;;32.24;32.00;100248.22;5000101;28;20034;-75
2022/06/27 08:58:14;;;;;;;3.28;2.28;;;;;;;32.37;30.87;100250.53;5003057;28;20604;-75
2022/06/27 09:00:45;;;;;;;4.65;4.22;;;;;;;32.62;30.99;100257.09;5004205;28;20077;-75
2022/06/27 09:03:21;;;;;;;6.32;3.60;;;;;;;32.86;30.92;100250.97;5002044;28;20034;-75
2022/06/27 09:05:58;;;;;;;4.65;3.83;;;;;;;32.71;29.59;100247.94;5003707;28;20069;-75
2022/06/27 09:08:28;;;;;;;1086.30;999.90;;;;;;;32.70;30.07;100241.63;4999461;28;20038;-75
2022/06/27 09:10:56;;;;;;;381.00;147.73;;;;;;;32.83;31.01;100238.47;5004375;28;20409;-75
2022/06/27 09:13:22;;;;;;;197.00;91.80;;;;;;;32.95;31.10;100236.31;5004854;28;20500;-75
2022/06/27 09:16:02;;;;;;;3.10;2.03;;;;;;;33.04;30.55;100243.59;5003429;28;20038;-75
2022/06/27 09:18:35;;;;;;;57.63;53.20;;;;;;;33.18;30.29;100240.25;5002165;28;20045;-75
2022/06/27 09:21:07;;;;;;;56.58;27.20;;;;;;;33.31;30.08;100241.69;5002110;28;20098;-75
2022/06/27 09:23:50;;;;;;;4.15;3.30;;;;;;;33.42;29.65;100246.84;5000739;28;20485;-75
2022/06/27 09:26:29;;;;;;;2.80;2.03;;;;;;;33.42;29.01;100237.78;4999660;28;20448;-75
2022/06/27 09:29:00;;;;;;;26.70;24.10;;;;;;;33.39;28.34;100237.09;4998522;28;20533;-75
2022/06/27 09:31:28;;;;;;;121.10;24.77;;;;;;;33.42;29.13;100233.16;5005164;28;20042;-75
2022/06/27 09:34:09;;;;;;;5.25;3.83;;;;;;;33.52;29.07;100228.41;5003139;28;20582;-75
2022/06/27 09:36:40;;;;;;;7.43;6.50;;;;;;;33.70;28.96;100230.22;5001839;28;20045;-75
2022/06/27 09:39:16;;;;;;;6.00;4.93;;;;;;;33.78;28.92;100230.25;5004609;28;20073;-75
2022/06/27 09:41:47;;;;;;;25.15;23.27;;;;;;;34.05;28.91;100227.19;5004897;28;20034;-75
2022/06/27 09:44:16;;;;;;;5.40;4.35;;;;;;;34.30;27.78;100231.88;4999860;28;20030;-75
2022/06/27 09:46:48;;;;;;;23.55;19.10;;;;;;;34.55;27.69;100219.03;5004120;28;20088;-75
2022/06/27 09:49:14;;;;;;;120.13;40.65;;;;;;;34.81;26.27;100219.72;5005508;28;20040;-75
2022/06/27 09:51:40;;;;;;;134.60;75.05;;;;;;;35.21;27.13;100215.16;4996537;28;20102;-75
2022/06/27 09:54:16;;;;;;;64.15;27.98;;;;;;;35.33;27.08;100223.88;4998021;28;20035;-75
2022/06/27 09:56:42;;;;;;;637.92;530.50;;;;;;;35.46;26.59;100218.66;4997107;28;20378;-75
2022/06/27 09:59:12;;;;;;;66.72;34.78;;;;;;;35.61;26.40;100213.31;5002841;28;20038;-75
2022/06/27 10:01:41;;;;;;;21.20;19.45;;;;;;;35.84;26.17;100220.72;4998424;28;20120;-75
2022/06/27 10:04:07;;;;;;;32.75;29.75;;;;;;;36.06;26.05;100219.03;5003683;28;20113;-75
2022/06/27 10:06:35;;;;;;;140.82;46.47;;;;;;;36.21;26.37;100211.75;5002630;28;20490;-75
2022/06/27 10:09:04;;;;;;;61.72;25.25;;;;;;;36.27;26.46;100199.16;5003784;28;20097;-75
2022/06/27 10:11:29;;;;;;;47.22;21.30;;;;;;;36.06;26.33;100206.16;5002285;28;20041;-75
2022/06/27 10:14:21;;;;;;;61.50;24.98;;;;;;;36.04;24.99;100199.13;4999474;28;20031;-75
2022/06/27 10:16:58;;;;;;;550.25;500.13;;;;;;;36.15;25.44;100202.31;5005781;28;20040;-75
2022/06/27 10:19:28;;;;;;;851.47;755.60;;;;;;;36.24;25.74;100202.28;5004835;28;20492;-75
2022/06/27 10:21:54;;;;;;;67.20;21.17;;;;;;;36.20;26.08;100199.88;5001871;28;20107;-75
2022/06/27 10:24:24;;;;;;;8.20;7.50;;;;;;;36.07;26.04;100204.28;5003042;28;20068;-75
2022/06/27 10:26:51;;;;;;;8.00;5.55;;;;;;;35.99;25.87;100202.41;5000984;28;20042;-75
2022/06/27 10:29:39;;;;;;;6.57;5.97;;;;;;;35.88;25.71;100200.09;5000541;28;20520;-75
2022/06/27 10:32:07;;;;;;;5.75;2.78;;;;;;;36.04;26.00;100204.63;4999044;28;20032;-75
2022/06/27 10:34:39;;;;;;;10.00;2.90;;;;;;;36.08;25.87;100200.50;4995495;28;20081;-75
2022/06/27 10:37:26;;;;;;;4.75;3.83;;;;;;;36.27;26.08;100204.66;4998201;28;20062;-75
2022/06/27 10:39:52;;;;;;;4.28;3.13;;;;;;;36.36;26.07;100198.03;4998881;28;20925;-75
2022/06/27 10:42:45;;;;;;;4.68;3.97;;;;;;;36.51;25.33;100193.44;4995852;28;20041;-75
2022/06/27 10:45:28;;;;;;;5.00;2.20;;;;;;;36.54;24.95;100186.72;5004327;28;20080;-75
2022/06/27 10:47:56;;;;;;;4.95;3.45;;;;;;;36.41;25.69;100184.59;5000143;28;20037;-75
2022/06/27 10:50:23;;;;;;;4.97;4.53;;;;;;;36.48;25.55;100190.22;4998772;28;20026;-75
2022/06/27 10:52:49;;;;;;;6.57;3.25;;;;;;;36.49;25.79;100186.41;4999409;28;20030;-75
2022/06/27 10:55:25;;;;;;;4.93;4.20;;;;;;;36.33;24.84;100170.94;5003795;28;20412;-75
2022/06/27 10:57:53;;;;;;;7.50;4.88;;;;;;;35.97;25.55;100172.41;5000297;28;20042;-75
2022/06/27 11:00:41;;;;;;;4.97;2.95;;;;;;;36.08;25.08;100167.53;5004174;28;20037;-74
2022/06/27 11:03:09;;;;;;;11.23;6.60;;;;;;;36.19;25.77;100172.59;5003637;28;20057;-74
2022/06/27 11:05:51;;;;;;;13.13;7.30;;;;;;;36.18;24.86;100170.88;4999850;28;20068;-74
2022/06/27 11:08:16;;;;;;;6.55;4.70;;;;;;;36.49;25.27;100168.03;5003937;28;20091;-73
2022/06/27 11:10:43;;;;;;;7.25;4.00;;;;;;;36.64;23.81;100157.09;5000324;28;20435;-74
2022/06/27 11:13:08;;;;;;;4.65;3.10;;;;;;;36.82;24.88;100153.97;4994374;28;20022;-74
2022/06/27 11:15:34;;;;;;;3.45;2.63;;;;;;;36.81;24.26;100152.25;4993415;28;20041;-74